sensor_id;sensor_type;location;lat;lon;timestamp;P1;durP1;ratioP1;P2;durP2;ratioP2
57217;SDS011;43078;52.972;6.482;2023-03-31T00:01:12;22.63;;;4.78;;
57217;SDS011;43078;52.972;6.482;2023-03-31T00:03:52;22.67;;;4.63;;
57217;SDS011;43078;52.972;6.482;2023-03-31T00:06:46;22.70;;;4.07;;
57217;SDS011;43078;52.972;6.482;2023-03-31T00:09:28;27.35;;;4.82;;
57217;SDS011;43078;52.972;6.482;2023-03-31T00:12:18;22.60;;;4.55;;
57217;SDS011;43078;52.972;6.482;2023-03-31T00:14:53;29.43;;;5.17;;
57217;SDS011;43078;52.972;6.482;2023-03-31T00:17:29;19.30;;;3.95;;
57217;SDS011;43078;52.972;6.482;2023-03-31T00:20:01;21.77;;;4.40;;
57217;SDS011;43078;52.972;6.482;2023-03-31T00:22:33;31.70;;;4.65;;
57217;SDS011;43078;52.972;6.482;2023-03-31T00:25:05;28.85;;;4.22;;
57217;SDS011;43078;52.972;6.482;2023-03-31T00:30:14;22.90;;;4.15;;
57217;SDS011;43078;52.972;6.482;2023-03-31T00:32:40;18.67;;;3.85;;
57217;SDS011;43078;52.972;6.482;2023-03-31T00:35:06;27.80;;;4.63;;
57217;SDS011;43078;52.972;6.482;2023-03-31T00:37:34;22.48;;;4.15;;
57217;SDS011;43078;52.972;6.482;2023-03-31T00:40:01;21.88;;;3.90;;
57217;SDS011;43078;52.972;6.482;2023-03-31T00:42:43;20.23;;;4.18;;
57217;SDS011;43078;52.972;6.482;2023-03-31T00:45:24;21.73;;;3.85;;
57217;SDS011;43078;52.972;6.482;2023-03-31T00:48:03;20.77;;;3.80;;
57217;SDS011;43078;52.972;6.482;2023-03-31T00:50:42;23.73;;;4.10;;
57217;SDS011;43078;52.972;6.482;2023-03-31T00:53:20;23.40;;;3.65;;
57217;SDS011;43078;52.972;6.482;2023-03-31T00:56:28;20.25;;;3.75;;
57217;SDS011;43078;52.972;6.482;2023-03-31T00:59:02;27.05;;;4.28;;
57217;SDS011;43078;52.972;6.482;2023-03-31T01:01:46;20.55;;;3.28;;
57217;SDS011;43078;52.972;6.482;2023-03-31T01:04:37;16.90;;;3.20;;
57217;SDS011;43078;52.972;6.482;2023-03-31T01:07:25;24.83;;;3.80;;
57217;SDS011;43078;52.972;6.482;2023-03-31T01:10:17;23.60;;;4.53;;
57217;SDS011;43078;52.972;6.482;2023-03-31T01:12:45;23.23;;;3.80;;
57217;SDS011;43078;52.972;6.482;2023-03-31T01:15:13;25.15;;;4.22;;
57217;SDS011;43078;52.972;6.482;2023-03-31T01:17:49;19.67;;;3.92;;
57217;SDS011;43078;52.972;6.482;2023-03-31T01:45:29;21.25;;;4.07;;
57217;SDS011;43078;52.972;6.482;2023-03-31T01:48:07;24.40;;;3.75;;
57217;SDS011;43078;52.972;6.482;2023-03-31T01:53:43;25.60;;;4.30;;
57217;SDS011;43078;52.972;6.482;2023-03-31T01:59:53;18.73;;;3.55;;
57217;SDS011;43078;52.972;6.482;2023-03-31T02:02:39;22.27;;;3.65;;
57217;SDS011;43078;52.972;6.482;2023-03-31T02:05:08;22.05;;;3.40;;
57217;SDS011;43078;52.972;6.482;2023-03-31T02:07:38;16.52;;;3.45;;
57217;SDS011;43078;52.972;6.482;2023-03-31T02:12:37;16.27;;;3.20;;
57217;SDS011;43078;52.972;6.482;2023-03-31T02:15:08;18.10;;;3.38;;
57217;SDS011;43078;52.972;6.482;2023-03-31T02:17:44;21.30;;;3.80;;
57217;SDS011;43078;52.972;6.482;2023-03-31T02:20:13;17.90;;;3.28;;
57217;SDS011;43078;52.972;6.482;2023-03-31T02:22:45;20.55;;;3.88;;
57217;SDS011;43078;52.972;6.482;2023-03-31T02:25:47;25.38;;;4.18;;
57217;SDS011;43078;52.972;6.482;2023-03-31T02:28:21;25.80;;;3.83;;
57217;SDS011;43078;52.972;6.482;2023-03-31T02:31:28;17.00;;;3.78;;
57217;SDS011;43078;52.972;6.482;2023-03-31T02:34:18;14.82;;;3.00;;
57217;SDS011;43078;52.972;6.482;2023-03-31T02:37:06;16.13;;;2.97;;
57217;SDS011;43078;52.972;6.482;2023-03-31T02:47:38;17.08;;;3.03;;
57217;SDS011;43078;52.972;6.482;2023-03-31T02:53:02;17.08;;;3.30;;
57217;SDS011;43078;52.972;6.482;2023-03-31T03:06:57;19.63;;;3.83;;
57217;SDS011;43078;52.972;6.482;2023-03-31T03:14:54;18.63;;;3.53;;
57217;SDS011;43078;52.972;6.482;2023-03-31T03:17:30;16.92;;;3.35;;
57217;SDS011;43078;52.972;6.482;2023-03-31T03:20:02;18.17;;;2.95;;
57217;SDS011;43078;52.972;6.482;2023-03-31T03:22:32;14.20;;;2.78;;
57217;SDS011;43078;52.972;6.482;2023-03-31T03:24:58;12.77;;;2.65;;
57217;SDS011;43078;52.972;6.482;2023-03-31T03:27:48;12.25;;;3.35;;
57217;SDS011;43078;52.972;6.482;2023-03-31T03:30:34;16.02;;;3.17;;
57217;SDS011;43078;52.972;6.482;2023-03-31T03:36:07;15.48;;;2.97;;
57217;SDS011;43078;52.972;6.482;2023-03-31T03:38:50;14.95;;;3.85;;
57217;SDS011;43078;52.972;6.482;2023-03-31T03:41:47;11.98;;;3.75;;
57217;SDS011;43078;52.972;6.482;2023-03-31T03:44:19;13.60;;;3.92;;
57217;SDS011;43078;52.972;6.482;2023-03-31T03:47:04;12.45;;;3.60;;
57217;SDS011;43078;52.972;6.482;2023-03-31T03:49:38;17.13;;;3.97;;
57217;SDS011;43078;52.972;6.482;2023-03-31T03:52:04;12.98;;;3.45;;
57217;SDS011;43078;52.972;6.482;2023-03-31T03:54:33;14.18;;;4.13;;
57217;SDS011;43078;52.972;6.482;2023-03-31T03:56:59;16.20;;;4.50;;
57217;SDS011;43078;52.972;6.482;2023-03-31T03:59:25;12.25;;;4.50;;
57217;SDS011;43078;52.972;6.482;2023-03-31T04:01:52;17.52;;;4.88;;
57217;SDS011;43078;52.972;6.482;2023-03-31T04:06:53;16.73;;;4.70;;
57217;SDS011;43078;52.972;6.482;2023-03-31T04:09:19;13.25;;;3.72;;
57217;SDS011;43078;52.972;6.482;2023-03-31T04:11:44;16.13;;;4.68;;
57217;SDS011;43078;52.972;6.482;2023-03-31T04:14:10;15.80;;;4.38;;
57217;SDS011;43078;52.972;6.482;2023-03-31T04:16:36;12.23;;;4.40;;
57217;SDS011;43078;52.972;6.482;2023-03-31T04:19:02;14.13;;;4.80;;
57217;SDS011;43078;52.972;6.482;2023-03-31T04:21:29;18.33;;;5.40;;
57217;SDS011;43078;52.972;6.482;2023-03-31T04:23:59;12.57;;;4.68;;
57217;SDS011;43078;52.972;6.482;2023-03-31T04:26:28;13.02;;;4.45;;
57217;SDS011;43078;52.972;6.482;2023-03-31T04:29:02;9.90;;;3.83;;
57217;SDS011;43078;52.972;6.482;2023-03-31T04:31:29;15.07;;;4.40;;
57217;SDS011;43078;52.972;6.482;2023-03-31T04:33:55;13.57;;;4.40;;
57217;SDS011;43078;52.972;6.482;2023-03-31T04:36:29;11.38;;;3.75;;
57217;SDS011;43078;52.972;6.482;2023-03-31T04:38:55;12.73;;;3.65;;
57217;SDS011;43078;52.972;6.482;2023-03-31T04:41:26;14.75;;;4.13;;
57217;SDS011;43078;52.972;6.482;2023-03-31T04:43:52;12.57;;;4.10;;
57217;SDS011;43078;52.972;6.482;2023-03-31T04:46:18;15.45;;;4.20;;
57217;SDS011;43078;52.972;6.482;2023-03-31T04:48:43;10.90;;;3.85;;
57217;SDS011;43078;52.972;6.482;2023-03-31T04:51:09;11.05;;;3.63;;
57217;SDS011;43078;52.972;6.482;2023-03-31T04:53:35;11.30;;;4.00;;
57217;SDS011;43078;52.972;6.482;2023-03-31T04:56:00;9.63;;;3.53;;
57217;SDS011;43078;52.972;6.482;2023-03-31T04:58:26;12.07;;;3.92;;
57217;SDS011;43078;52.972;6.482;2023-03-31T05:00:52;12.23;;;4.45;;
57217;SDS011;43078;52.972;6.482;2023-03-31T05:03:18;17.88;;;3.63;;
57217;SDS011;43078;52.972;6.482;2023-03-31T05:05:44;10.45;;;3.28;;
57217;SDS011;43078;52.972;6.482;2023-03-31T05:08:10;13.40;;;4.03;;
57217;SDS011;43078;52.972;6.482;2023-03-31T05:10:36;10.60;;;3.60;;
57217;SDS011;43078;52.972;6.482;2023-03-31T05:13:01;12.57;;;3.63;;
57217;SDS011;43078;52.972;6.482;2023-03-31T05:15:27;14.48;;;3.72;;
57217;SDS011;43078;52.972;6.482;2023-03-31T05:17:53;15.80;;;4.22;;
57217;SDS011;43078;52.972;6.482;2023-03-31T05:20:18;10.35;;;3.63;;
57217;SDS011;43078;52.972;6.482;2023-03-31T05:22:44;10.25;;;3.42;;
57217;SDS011;43078;52.972;6.482;2023-03-31T05:25:11;9.80;;;3.33;;
57217;SDS011;43078;52.972;6.482;2023-03-31T05:27:43;11.32;;;3.65;;
57217;SDS011;43078;52.972;6.482;2023-03-31T05:30:15;8.95;;;3.30;;
57217;SDS011;43078;52.972;6.482;2023-03-31T05:32:42;15.45;;;3.70;;
57217;SDS011;43078;52.972;6.482;2023-03-31T05:35:08;14.95;;;3.50;;
57217;SDS011;43078;52.972;6.482;2023-03-31T05:37:34;14.13;;;3.55;;
57217;SDS011;43078;52.972;6.482;2023-03-31T05:40:00;9.20;;;3.15;;
57217;SDS011;43078;52.972;6.482;2023-03-31T05:42:28;13.35;;;3.60;;
57217;SDS011;43078;52.972;6.482;2023-03-31T05:44:54;9.13;;;3.10;;
57217;SDS011;43078;52.972;6.482;2023-03-31T05:47:21;10.75;;;3.20;;
57217;SDS011;43078;52.972;6.482;2023-03-31T05:49:47;12.00;;;3.10;;
57217;SDS011;43078;52.972;6.482;2023-03-31T05:52:12;8.52;;;3.10;;
57217;SDS011;43078;52.972;6.482;2023-03-31T05:54:38;9.68;;;2.97;;
57217;SDS011;43078;52.972;6.482;2023-03-31T05:57:04;9.88;;;3.22;;
57217;SDS011;43078;52.972;6.482;2023-03-31T05:59:30;11.55;;;3.38;;
57217;SDS011;43078;52.972;6.482;2023-03-31T06:01:56;10.25;;;3.10;;
57217;SDS011;43078;52.972;6.482;2023-03-31T06:04:22;10.73;;;3.13;;
57217;SDS011;43078;52.972;6.482;2023-03-31T06:06:48;9.15;;;3.03;;
57217;SDS011;43078;52.972;6.482;2023-03-31T06:09:14;9.55;;;2.88;;
57217;SDS011;43078;52.972;6.482;2023-03-31T06:11:41;12.27;;;3.28;;
57217;SDS011;43078;52.972;6.482;2023-03-31T06:14:06;8.73;;;3.08;;
57217;SDS011;43078;52.972;6.482;2023-03-31T06:16:32;10.63;;;3.10;;
57217;SDS011;43078;52.972;6.482;2023-03-31T06:18:58;8.20;;;2.65;;
57217;SDS011;43078;52.972;6.482;2023-03-31T06:21:23;11.15;;;3.13;;
57217;SDS011;43078;52.972;6.482;2023-03-31T06:23:49;8.68;;;3.08;;
57217;SDS011;43078;52.972;6.482;2023-03-31T06:26:19;9.13;;;3.10;;
57217;SDS011;43078;52.972;6.482;2023-03-31T06:28:46;9.32;;;2.75;;
57217;SDS011;43078;52.972;6.482;2023-03-31T06:31:13;10.55;;;3.20;;
57217;SDS011;43078;52.972;6.482;2023-03-31T06:33:43;9.90;;;2.67;;
57217;SDS011;43078;52.972;6.482;2023-03-31T06:36:09;9.40;;;2.63;;
57217;SDS011;43078;52.972;6.482;2023-03-31T06:38:37;11.23;;;3.25;;
57217;SDS011;43078;52.972;6.482;2023-03-31T06:41:04;8.30;;;3.05;;
57217;SDS011;43078;52.972;6.482;2023-03-31T06:43:31;8.32;;;2.83;;
57217;SDS011;43078;52.972;6.482;2023-03-31T06:45:57;8.45;;;2.60;;
57217;SDS011;43078;52.972;6.482;2023-03-31T06:48:23;7.47;;;2.55;;
57217;SDS011;43078;52.972;6.482;2023-03-31T06:50:50;9.63;;;3.20;;
57217;SDS011;43078;52.972;6.482;2023-03-31T06:53:17;7.53;;;2.60;;
57217;SDS011;43078;52.972;6.482;2023-03-31T06:55:42;8.98;;;2.55;;
57217;SDS011;43078;52.972;6.482;2023-03-31T06:58:08;10.55;;;2.97;;
57217;SDS011;43078;52.972;6.482;2023-03-31T07:00:34;6.05;;;2.30;;
57217;SDS011;43078;52.972;6.482;2023-03-31T07:02:59;8.43;;;2.67;;
57217;SDS011;43078;52.972;6.482;2023-03-31T07:05:26;7.85;;;2.53;;
57217;SDS011;43078;52.972;6.482;2023-03-31T07:07:56;11.18;;;2.50;;
57217;SDS011;43078;52.972;6.482;2023-03-31T07:10:24;5.30;;;2.25;;
57217;SDS011;43078;52.972;6.482;2023-03-31T07:12:51;9.77;;;2.70;;
57217;SDS011;43078;52.972;6.482;2023-03-31T07:15:17;10.75;;;2.58;;
57217;SDS011;43078;52.972;6.482;2023-03-31T07:17:42;9.05;;;2.70;;
57217;SDS011;43078;52.972;6.482;2023-03-31T07:20:09;10.25;;;3.00;;
57217;SDS011;43078;52.972;6.482;2023-03-31T07:22:40;11.10;;;3.03;;
57217;SDS011;43078;52.972;6.482;2023-03-31T07:25:07;7.53;;;2.65;;
57217;SDS011;43078;52.972;6.482;2023-03-31T07:27:34;10.43;;;3.05;;
57217;SDS011;43078;52.972;6.482;2023-03-31T07:30:01;8.90;;;2.40;;
57217;SDS011;43078;52.972;6.482;2023-03-31T07:32:28;8.18;;;2.80;;
57217;SDS011;43078;52.972;6.482;2023-03-31T07:34:54;7.78;;;2.70;;
57217;SDS011;43078;52.972;6.482;2023-03-31T07:37:19;8.23;;;2.80;;
57217;SDS011;43078;52.972;6.482;2023-03-31T07:39:45;10.23;;;2.85;;
57217;SDS011;43078;52.972;6.482;2023-03-31T07:42:11;8.05;;;2.70;;
57217;SDS011;43078;52.972;6.482;2023-03-31T07:44:36;7.72;;;2.67;;
57217;SDS011;43078;52.972;6.482;2023-03-31T07:47:02;6.30;;;2.47;;
57217;SDS011;43078;52.972;6.482;2023-03-31T07:49:30;8.57;;;2.88;;
57217;SDS011;43078;52.972;6.482;2023-03-31T07:51:57;9.95;;;2.35;;
57217;SDS011;43078;52.972;6.482;2023-03-31T07:54:23;9.02;;;2.67;;
57217;SDS011;43078;52.972;6.482;2023-03-31T07:56:49;8.38;;;2.40;;
57217;SDS011;43078;52.972;6.482;2023-03-31T07:59:15;9.98;;;2.67;;
57217;SDS011;43078;52.972;6.482;2023-03-31T08:01:40;9.57;;;2.75;;
57217;SDS011;43078;52.972;6.482;2023-03-31T08:04:06;8.18;;;2.65;;
57217;SDS011;43078;52.972;6.482;2023-03-31T08:06:33;7.43;;;2.38;;
57217;SDS011;43078;52.972;6.482;2023-03-31T08:08:58;9.02;;;2.30;;
57217;SDS011;43078;52.972;6.482;2023-03-31T08:11:24;8.10;;;2.53;;
57217;SDS011;43078;52.972;6.482;2023-03-31T08:13:51;9.27;;;2.65;;
57217;SDS011;43078;52.972;6.482;2023-03-31T08:16:17;10.50;;;2.60;;
57217;SDS011;43078;52.972;6.482;2023-03-31T08:18:42;12.27;;;2.67;;
57217;SDS011;43078;52.972;6.482;2023-03-31T08:21:08;11.18;;;2.58;;
57217;SDS011;43078;52.972;6.482;2023-03-31T08:23:34;7.53;;;2.30;;
57217;SDS011;43078;52.972;6.482;2023-03-31T08:26:07;10.85;;;2.72;;
57217;SDS011;43078;52.972;6.482;2023-03-31T08:28:37;10.25;;;3.00;;
57217;SDS011;43078;52.972;6.482;2023-03-31T08:31:04;9.85;;;3.00;;
57217;SDS011;43078;52.972;6.482;2023-03-31T08:33:32;11.15;;;2.67;;
57217;SDS011;43078;52.972;6.482;2023-03-31T08:36:05;9.02;;;2.80;;
57217;SDS011;43078;52.972;6.482;2023-03-31T08:38:34;9.88;;;2.58;;
57217;SDS011;43078;52.972;6.482;2023-03-31T08:41:03;10.25;;;2.95;;
57217;SDS011;43078;52.972;6.482;2023-03-31T08:43:32;10.43;;;2.72;;
57217;SDS011;43078;52.972;6.482;2023-03-31T08:48:53;10.40;;;3.35;;
57217;SDS011;43078;52.972;6.482;2023-03-31T08:51:26;11.90;;;3.05;;
57217;SDS011;43078;52.972;6.482;2023-03-31T08:56:51;17.13;;;3.10;;
57217;SDS011;43078;52.972;6.482;2023-03-31T08:59:28;12.55;;;2.78;;
57217;SDS011;43078;52.972;6.482;2023-03-31T09:01:57;13.20;;;3.03;;
57217;SDS011;43078;52.972;6.482;2023-03-31T09:07:26;10.43;;;2.58;;
57217;SDS011;43078;52.972;6.482;2023-03-31T09:12:54;8.98;;;2.60;;
57217;SDS011;43078;52.972;6.482;2023-03-31T09:21:45;8.77;;;2.53;;
57217;SDS011;43078;52.972;6.482;2023-03-31T09:23:47;11.13;;;2.88;;
57217;SDS011;43078;52.972;6.482;2023-03-31T09:26:20;11.25;;;2.78;;
57217;SDS011;43078;52.972;6.482;2023-03-31T09:28:50;8.90;;;2.72;;
57217;SDS011;43078;52.972;6.482;2023-03-31T09:31:18;10.50;;;2.88;;
57217;SDS011;43078;52.972;6.482;2023-03-31T09:33:45;7.38;;;2.13;;
57217;SDS011;43078;52.972;6.482;2023-03-31T09:36:18;10.50;;;2.55;;
57217;SDS011;43078;52.972;6.482;2023-03-31T09:38:46;9.38;;;3.03;;
57217;SDS011;43078;52.972;6.482;2023-03-31T09:41:13;10.85;;;2.70;;
57217;SDS011;43078;52.972;6.482;2023-03-31T09:43:40;12.57;;;2.80;;
57217;SDS011;43078;52.972;6.482;2023-03-31T09:48:59;11.88;;;2.60;;
57217;SDS011;43078;52.972;6.482;2023-03-31T09:51:31;9.93;;;2.20;;
57217;SDS011;43078;52.972;6.482;2023-03-31T09:56:53;7.80;;;2.10;;
57217;SDS011;43078;52.972;6.482;2023-03-31T09:59:32;6.45;;;2.00;;
57217;SDS011;43078;52.972;6.482;2023-03-31T10:02:00;7.05;;;1.83;;
57217;SDS011;43078;52.972;6.482;2023-03-31T10:04:32;7.38;;;2.35;;
57217;SDS011;43078;52.972;6.482;2023-03-31T10:06:59;8.90;;;2.30;;
57217;SDS011;43078;52.972;6.482;2023-03-31T10:09:29;10.40;;;2.25;;
57217;SDS011;43078;52.972;6.482;2023-03-31T10:14:34;7.10;;;2.05;;
57217;SDS011;43078;52.972;6.482;2023-03-31T10:17:12;7.80;;;2.00;;
57217;SDS011;43078;52.972;6.482;2023-03-31T10:19:46;6.55;;;2.03;;
57217;SDS011;43078;52.972;6.482;2023-03-31T10:24:52;10.50;;;2.03;;
57217;SDS011;43078;52.972;6.482;2023-03-31T10:27:25;5.38;;;1.70;;
57217;SDS011;43078;52.972;6.482;2023-03-31T10:29:53;8.07;;;1.98;;
57217;SDS011;43078;52.972;6.482;2023-03-31T10:32:27;9.23;;;2.40;;
57217;SDS011;43078;52.972;6.482;2023-03-31T10:34:58;7.22;;;1.95;;
57217;SDS011;43078;52.972;6.482;2023-03-31T10:37:30;8.65;;;1.90;;
57217;SDS011;43078;52.972;6.482;2023-03-31T10:39:59;7.72;;;1.90;;
57217;SDS011;43078;52.972;6.482;2023-03-31T10:42:29;11.18;;;2.28;;
57217;SDS011;43078;52.972;6.482;2023-03-31T10:45:09;8.02;;;1.73;;
57217;SDS011;43078;52.972;6.482;2023-03-31T10:47:39;11.35;;;2.40;;
57217;SDS011;43078;52.972;6.482;2023-03-31T10:50:13;10.98;;;2.30;;
57217;SDS011;43078;52.972;6.482;2023-03-31T10:52:43;7.28;;;1.73;;
57217;SDS011;43078;52.972;6.482;2023-03-31T10:55:21;8.70;;;2.00;;
57217;SDS011;43078;52.972;6.482;2023-03-31T10:57:55;9.05;;;2.40;;
57217;SDS011;43078;52.972;6.482;2023-03-31T11:00:38;6.00;;;2.10;;
57217;SDS011;43078;52.972;6.482;2023-03-31T11:03:29;11.32;;;2.50;;
57217;SDS011;43078;52.972;6.482;2023-03-31T11:06:04;8.52;;;2.65;;
57217;SDS011;43078;52.972;6.482;2023-03-31T11:11:10;8.50;;;2.22;;
57217;SDS011;43078;52.972;6.482;2023-03-31T11:14:01;7.28;;;2.17;;
57217;SDS011;43078;52.972;6.482;2023-03-31T11:16:38;7.57;;;2.00;;
57217;SDS011;43078;52.972;6.482;2023-03-31T11:22:15;6.43;;;1.67;;
57217;SDS011;43078;52.972;6.482;2023-03-31T11:27:42;4.70;;;2.05;;
57217;SDS011;43078;52.972;6.482;2023-03-31T11:30:30;7.25;;;1.95;;
57217;SDS011;43078;52.972;6.482;2023-03-31T11:36:21;7.82;;;1.98;;
57217;SDS011;43078;52.972;6.482;2023-03-31T11:41:55;10.40;;;1.90;;
57217;SDS011;43078;52.972;6.482;2023-03-31T11:44:26;8.65;;;1.60;;
57217;SDS011;43078;52.972;6.482;2023-03-31T11:47:02;8.35;;;1.88;;
57217;SDS011;43078;52.972;6.482;2023-03-31T11:50:06;9.32;;;2.05;;
57217;SDS011;43078;52.972;6.482;2023-03-31T11:52:46;9.20;;;2.03;;
57217;SDS011;43078;52.972;6.482;2023-03-31T11:55:21;6.43;;;1.67;;
57217;SDS011;43078;52.972;6.482;2023-03-31T11:57:58;9.00;;;1.80;;
57217;SDS011;43078;52.972;6.482;2023-03-31T12:00:33;8.60;;;2.13;;
57217;SDS011;43078;52.972;6.482;2023-03-31T12:06:08;14.23;;;5.78;;
57217;SDS011;43078;52.972;6.482;2023-03-31T12:08:49;17.15;;;8.60;;
57217;SDS011;43078;52.972;6.482;2023-03-31T12:14:30;8.57;;;2.50;;
57217;SDS011;43078;52.972;6.482;2023-03-31T12:19:47;7.30;;;2.22;;
57217;SDS011;43078;52.972;6.482;2023-03-31T12:22:27;9.05;;;2.30;;
57217;SDS011;43078;52.972;6.482;2023-03-31T12:24:55;11.35;;;2.63;;
57217;SDS011;43078;52.972;6.482;2023-03-31T12:27:26;10.48;;;2.63;;
57217;SDS011;43078;52.972;6.482;2023-03-31T12:30:05;12.48;;;2.90;;
57217;SDS011;43078;52.972;6.482;2023-03-31T12:32:35;14.65;;;3.50;;
57217;SDS011;43078;52.972;6.482;2023-03-31T12:50:01;11.30;;;2.97;;
57217;SDS011;43078;52.972;6.482;2023-03-31T12:55:57;9.90;;;2.55;;
57217;SDS011;43078;52.972;6.482;2023-03-31T13:06:04;12.73;;;3.25;;
57217;SDS011;43078;52.972;6.482;2023-03-31T13:11:21;10.35;;;2.67;;
57217;SDS011;43078;52.972;6.482;2023-03-31T13:14:06;14.05;;;3.10;;
57217;SDS011;43078;52.972;6.482;2023-03-31T13:16:52;11.00;;;2.90;;
57217;SDS011;43078;52.972;6.482;2023-03-31T13:19:35;16.38;;;2.90;;
57217;SDS011;43078;52.972;6.482;2023-03-31T13:22:04;17.02;;;3.50;;
57217;SDS011;43078;52.972;6.482;2023-03-31T13:24:30;15.10;;;2.88;;
57217;SDS011;43078;52.972;6.482;2023-03-31T13:26:58;15.63;;;3.15;;
57217;SDS011;43078;52.972;6.482;2023-03-31T13:30:32;13.68;;;3.13;;
57217;SDS011;43078;52.972;6.482;2023-03-31T13:33:04;14.25;;;2.97;;
57217;SDS011;43078;52.972;6.482;2023-03-31T13:35:38;11.88;;;2.85;;
57217;SDS011;43078;52.972;6.482;2023-03-31T13:41:16;11.90;;;2.17;;
57217;SDS011;43078;52.972;6.482;2023-03-31T13:46:47;8.02;;;2.20;;
57217;SDS011;43078;52.972;6.482;2023-03-31T13:52:11;12.82;;;2.47;;
57217;SDS011;43078;52.972;6.482;2023-03-31T14:03:34;7.82;;;1.52;;
57217;SDS011;43078;52.972;6.482;2023-03-31T14:06:19;8.40;;;1.33;;
57217;SDS011;43078;52.972;6.482;2023-03-31T14:16:42;7.70;;;1.60;;
57217;SDS011;43078;52.972;6.482;2023-03-31T14:30:13;7.32;;;1.90;;
57217;SDS011;43078;52.972;6.482;2023-03-31T14:35:27;6.35;;;1.63;;
57217;SDS011;43078;52.972;6.482;2023-03-31T14:38:02;5.75;;;1.27;;
57217;SDS011;43078;52.972;6.482;2023-03-31T14:40:33;6.82;;;1.30;;
57217;SDS011;43078;52.972;6.482;2023-03-31T14:43:01;5.78;;;1.27;;
57217;SDS011;43078;52.972;6.482;2023-03-31T14:45:29;3.90;;;0.98;;
57217;SDS011;43078;52.972;6.482;2023-03-31T14:47:56;7.38;;;1.70;;
57217;SDS011;43078;52.972;6.482;2023-03-31T14:50:27;10.00;;;1.20;;
57217;SDS011;43078;52.972;6.482;2023-03-31T14:52:55;7.25;;;1.35;;
57217;SDS011;43078;52.972;6.482;2023-03-31T14:55:22;6.75;;;1.50;;
57217;SDS011;43078;52.972;6.482;2023-03-31T14:57:51;6.20;;;1.27;;
57217;SDS011;43078;52.972;6.482;2023-03-31T15:00:20;6.88;;;1.30;;
57217;SDS011;43078;52.972;6.482;2023-03-31T15:02:52;5.40;;;1.13;;
57217;SDS011;43078;52.972;6.482;2023-03-31T15:05:29;4.72;;;1.10;;
57217;SDS011;43078;52.972;6.482;2023-03-31T15:08:24;6.20;;;1.10;;
57217;SDS011;43078;52.972;6.482;2023-03-31T15:10:53;8.48;;;1.45;;
57217;SDS011;43078;52.972;6.482;2023-03-31T15:13:33;7.35;;;1.83;;
57217;SDS011;43078;52.972;6.482;2023-03-31T15:21:54;8.27;;;1.67;;
57217;SDS011;43078;52.972;6.482;2023-03-31T15:24:30;8.50;;;1.60;;
57217;SDS011;43078;52.972;6.482;2023-03-31T15:29:27;10.57;;;2.15;;
57217;SDS011;43078;52.972;6.482;2023-03-31T15:32:01;87.90;;;21.58;;
57217;SDS011;43078;52.972;6.482;2023-03-31T15:34:31;47.42;;;18.75;;
57217;SDS011;43078;52.972;6.482;2023-03-31T15:36:59;18.80;;;5.60;;
57217;SDS011;43078;52.972;6.482;2023-03-31T15:39:28;19.83;;;7.07;;
57217;SDS011;43078;52.972;6.482;2023-03-31T15:41:57;43.85;;;19.98;;
57217;SDS011;43078;52.972;6.482;2023-03-31T15:47:05;40.83;;;17.05;;
57217;SDS011;43078;52.972;6.482;2023-03-31T15:49:53;35.50;;;14.90;;
57217;SDS011;43078;52.972;6.482;2023-03-31T15:52:49;48.70;;;26.13;;
57217;SDS011;43078;52.972;6.482;2023-03-31T15:59:02;42.40;;;18.20;;
57217;SDS011;43078;52.972;6.482;2023-03-31T16:01:36;13.35;;;4.30;;
57217;SDS011;43078;52.972;6.482;2023-03-31T16:04:14;16.90;;;6.03;;
57217;SDS011;43078;52.972;6.482;2023-03-31T16:09:58;23.35;;;10.68;;
57217;SDS011;43078;52.972;6.482;2023-03-31T16:12:47;26.67;;;11.70;;
57217;SDS011;43078;52.972;6.482;2023-03-31T16:15:36;29.08;;;11.77;;
57217;SDS011;43078;52.972;6.482;2023-03-31T16:18:35;14.20;;;4.95;;
57217;SDS011;43078;52.972;6.482;2023-03-31T16:21:04;19.52;;;8.05;;
57217;SDS011;43078;52.972;6.482;2023-03-31T16:23:33;19.05;;;6.63;;
57217;SDS011;43078;52.972;6.482;2023-03-31T16:26:02;14.52;;;6.80;;
57217;SDS011;43078;52.972;6.482;2023-03-31T16:28:30;21.80;;;7.50;;
57217;SDS011;43078;52.972;6.482;2023-03-31T16:30:57;20.45;;;7.70;;
57217;SDS011;43078;52.972;6.482;2023-03-31T16:33:29;21.17;;;8.25;;
57217;SDS011;43078;52.972;6.482;2023-03-31T16:35:56;14.95;;;6.15;;
57217;SDS011;43078;52.972;6.482;2023-03-31T16:41:18;19.25;;;7.57;;
57217;SDS011;43078;52.972;6.482;2023-03-31T16:44:12;15.52;;;4.70;;
57217;SDS011;43078;52.972;6.482;2023-03-31T16:46:38;14.63;;;5.47;;
57217;SDS011;43078;52.972;6.482;2023-03-31T16:49:04;10.88;;;4.45;;
57217;SDS011;43078;52.972;6.482;2023-03-31T16:51:33;17.60;;;6.47;;
57217;SDS011;43078;52.972;6.482;2023-03-31T16:53:59;15.93;;;6.57;;
57217;SDS011;43078;52.972;6.482;2023-03-31T16:56:25;16.13;;;5.57;;
57217;SDS011;43078;52.972;6.482;2023-03-31T17:01:20;11.20;;;4.20;;
57217;SDS011;43078;52.972;6.482;2023-03-31T17:03:46;12.23;;;3.65;;
57217;SDS011;43078;52.972;6.482;2023-03-31T17:06:12;13.35;;;4.00;;
57217;SDS011;43078;52.972;6.482;2023-03-31T17:08:38;11.50;;;3.38;;
57217;SDS011;43078;52.972;6.482;2023-03-31T17:13:31;8.45;;;2.85;;
57217;SDS011;43078;52.972;6.482;2023-03-31T17:15:57;11.90;;;3.40;;
57217;SDS011;43078;52.972;6.482;2023-03-31T17:18:24;12.65;;;3.53;;
57217;SDS011;43078;52.972;6.482;2023-03-31T17:20:50;9.95;;;2.20;;
57217;SDS011;43078;52.972;6.482;2023-03-31T17:23:18;8.38;;;2.13;;
57217;SDS011;43078;52.972;6.482;2023-03-31T17:25:48;12.77;;;3.80;;
57217;SDS011;43078;52.972;6.482;2023-03-31T17:28:14;11.00;;;3.35;;
57217;SDS011;43078;52.972;6.482;2023-03-31T17:30:40;10.75;;;3.45;;
57217;SDS011;43078;52.972;6.482;2023-03-31T17:33:14;11.07;;;3.67;;
57217;SDS011;43078;52.972;6.482;2023-03-31T17:35:40;9.07;;;3.00;;
57217;SDS011;43078;52.972;6.482;2023-03-31T17:38:07;9.80;;;2.78;;
57217;SDS011;43078;52.972;6.482;2023-03-31T17:40:33;11.80;;;2.92;;
57217;SDS011;43078;52.972;6.482;2023-03-31T17:42:59;8.32;;;2.92;;
57217;SDS011;43078;52.972;6.482;2023-03-31T17:45:32;9.43;;;3.28;;
57217;SDS011;43078;52.972;6.482;2023-03-31T17:47:58;7.60;;;2.70;;
57217;SDS011;43078;52.972;6.482;2023-03-31T17:50:24;7.05;;;2.72;;
57217;SDS011;43078;52.972;6.482;2023-03-31T17:52:51;8.75;;;3.00;;
57217;SDS011;43078;52.972;6.482;2023-03-31T17:55:18;6.97;;;2.28;;
57217;SDS011;43078;52.972;6.482;2023-03-31T17:57:44;9.90;;;2.67;;
57217;SDS011;43078;52.972;6.482;2023-03-31T18:00:10;7.97;;;2.33;;
57217;SDS011;43078;52.972;6.482;2023-03-31T18:02:39;6.93;;;2.28;;
57217;SDS011;43078;52.972;6.482;2023-03-31T18:05:06;11.98;;;2.60;;
57217;SDS011;43078;52.972;6.482;2023-03-31T18:07:33;7.10;;;2.05;;
57217;SDS011;43078;52.972;6.482;2023-03-31T18:10:00;7.97;;;2.47;;
57217;SDS011;43078;52.972;6.482;2023-03-31T18:12:26;7.72;;;2.50;;
57217;SDS011;43078;52.972;6.482;2023-03-31T18:14:53;9.40;;;2.42;;
57217;SDS011;43078;52.972;6.482;2023-03-31T18:17:19;9.80;;;2.08;;
57217;SDS011;43078;52.972;6.482;2023-03-31T18:19:45;9.95;;;2.50;;
57217;SDS011;43078;52.972;6.482;2023-03-31T18:22:11;8.45;;;1.80;;
57217;SDS011;43078;52.972;6.482;2023-03-31T18:24:36;8.50;;;2.17;;
57217;SDS011;43078;52.972;6.482;2023-03-31T18:27:04;7.68;;;2.08;;
57217;SDS011;43078;52.972;6.482;2023-03-31T18:29:30;7.50;;;2.00;;
57217;SDS011;43078;52.972;6.482;2023-03-31T18:31:56;8.18;;;1.83;;
57217;SDS011;43078;52.972;6.482;2023-03-31T18:34:21;8.20;;;1.75;;
57217;SDS011;43078;52.972;6.482;2023-03-31T18:36:47;7.55;;;1.88;;
57217;SDS011;43078;52.972;6.482;2023-03-31T18:39:19;5.72;;;1.30;;
57217;SDS011;43078;52.972;6.482;2023-03-31T18:44:21;8.80;;;2.20;;